sensor_id;sensor_type;location;lat;lon;timestamp;pressure;altitude;pressure_sealevel;temperature;humidity
35489;BME280;21602;55.670;37.578;2023-12-20T00:00:16;97374.34;;;4.31;100.00
35489;BME280;21602;55.670;37.578;2023-12-20T00:02:42;97378.53;;;4.27;100.00
35489;BME280;21602;55.670;37.578;2023-12-20T00:05:13;97383.47;;;4.24;100.00
35489;BME280;21602;55.670;37.578;2023-12-20T00:07:39;97385.31;;;4.23;100.00
35489;BME280;21602;55.670;37.578;2023-12-20T00:10:05;97384.53;;;4.23;100.00
35489;BME280;21602;55.670;37.578;2023-12-20T00:12:32;97370.75;;;4.21;100.00
35489;BME280;21602;55.670;37.578;2023-12-20T00:14:58;97371.78;;;4.20;100.00
35489;BME280;21602;55.670;37.578;2023-12-20T00:17:24;97384.41;;;4.18;100.00
35489;BME280;21602;55.670;37.578;2023-12-20T00:19:50;97395.47;;;4.15;100.00
35489;BME280;21602;55.670;37.578;2023-12-20T00:22:15;97402.34;;;4.16;100.00
35489;BME280;21602;55.670;37.578;2023-12-20T00:24:41;97395.47;;;4.15;100.00
35489;BME280;21602;55.670;37.578;2023-12-20T00:27:07;97401.88;;;4.19;100.00
35489;BME280;21602;55.670;37.578;2023-12-20T00:29:34;97399.00;;;4.20;100.00
35489;BME280;21602;55.670;37.578;2023-12-20T00:32:00;97388.09;;;4.17;100.00
35489;BME280;21602;55.670;37.578;2023-12-20T00:34:25;97391.00;;;4.15;100.00
35489;BME280;21602;55.670;37.578;2023-12-20T00:36:51;97395.56;;;4.20;100.00
35489;BME280;21602;55.670;37.578;2023-12-20T00:39:17;97390.69;;;4.28;100.00
35489;BME280;21602;55.670;37.578;2023-12-20T00:41:43;97399.31;;;4.24;100.00
35489;BME280;21602;55.670;37.578;2023-12-20T00:44:10;97407.31;;;4.29;100.00
35489;BME280;21602;55.670;37.578;2023-12-20T00:46:35;97405.72;;;4.28;100.00
35489;BME280;21602;55.670;37.578;2023-12-20T00:49:01;97411.00;;;4.28;100.00
35489;BME280;21602;55.670;37.578;2023-12-20T00:51:27;97396.75;;;4.29;100.00
35489;BME280;21602;55.670;37.578;2023-12-20T00:53:54;97398.81;;;4.27;100.00
35489;BME280;21602;55.670;37.578;2023-12-20T00:56:20;97399.31;;;4.24;100.00
35489;BME280;21602;55.670;37.578;2023-12-20T00:58:46;97396.09;;;4.22;100.00
35489;BME280;21602;55.670;37.578;2023-12-20T01:01:12;97385.31;;;4.23;100.00
35489;BME280;21602;55.670;37.578;2023-12-20T01:03:39;97384.03;;;4.26;100.00
35489;BME280;21602;55.670;37.578;2023-12-20T01:06:05;97392.44;;;4.23;100.00
35489;BME280;21602;55.670;37.578;2023-12-20T01:08:31;97383.16;;;4.20;100.00
35489;BME280;21602;55.670;37.578;2023-12-20T01:10:56;97389.69;;;4.18;100.00
35489;BME280;21602;55.670;37.578;2023-12-20T01:13:22;97384.66;;;4.16;100.00
35489;BME280;21602;55.670;37.578;2023-12-20T01:15:48;97372.25;;;4.17;100.00
35489;BME280;21602;55.670;37.578;2023-12-20T01:18:14;97358.50;;;4.15;100.00
35489;BME280;21602;55.670;37.578;2023-12-20T01:20:40;97369.88;;;4.15;100.00
35489;BME280;21602;55.670;37.578;2023-12-20T01:23:07;97363.22;;;4.13;100.00
35489;BME280;21602;55.670;37.578;2023-12-20T01:25:33;97356.91;;;4.14;100.00
35489;BME280;21602;55.670;37.578;2023-12-20T01:28:00;97375.94;;;4.16;100.00
35489;BME280;21602;55.670;37.578;2023-12-20T01:30:25;97378.66;;;4.21;100.00
35489;BME280;21602;55.670;37.578;2023-12-20T01:32:51;97366.03;;;4.23;100.00
35489;BME280;21602;55.670;37.578;2023-12-20T01:35:17;97378.41;;;4.22;100.00
35489;BME280;21602;55.670;37.578;2023-12-20T01:37:43;97387.97;;;4.23;100.00
35489;BME280;21602;55.670;37.578;2023-12-20T01:40:09;97369.69;;;4.22;100.00
35489;BME280;21602;55.670;37.578;2023-12-20T01:42:35;97375.47;;;4.19;100.00
35489;BME280;21602;55.670;37.578;2023-12-20T01:45:01;97369.06;;;4.15;100.00
35489;BME280;21602;55.670;37.578;2023-12-20T01:47:29;97362.59;;;4.05;100.00
35489;BME280;21602;55.670;37.578;2023-12-20T01:49:55;97345.44;;;4.08;100.00
35489;BME280;21602;55.670;37.578;2023-12-20T01:52:22;97350.00;;;4.13;100.00
35489;BME280;21602;55.670;37.578;2023-12-20T01:54:49;97346.56;;;4.12;100.00
35489;BME280;21602;55.670;37.578;2023-12-20T01:57:16;97341.06;;;4.14;100.00
35489;BME280;21602;55.670;37.578;2023-12-20T01:59:42;97341.28;;;4.12;100.00
35489;BME280;21602;55.670;37.578;2023-12-20T02:02:07;97348.91;;;4.08;100.00
35489;BME280;21602;55.670;37.578;2023-12-20T02:04:33;97337.16;;;3.99;100.00
35489;BME280;21602;55.670;37.578;2023-12-20T02:06:59;97354.59;;;4.00;100.00
35489;BME280;21602;55.670;37.578;2023-12-20T02:09:26;97346.66;;;4.00;100.00
35489;BME280;21602;55.670;37.578;2023-12-20T02:11:54;97355.38;;;4.01;100.00
35489;BME280;21602;55.670;37.578;2023-12-20T02:14:19;97351.16;;;4.00;100.00
35489;BME280;21602;55.670;37.578;2023-12-20T02:16:45;97341.72;;;4.04;100.00
35489;BME280;21602;55.670;37.578;2023-12-20T02:19:13;97344.09;;;4.05;100.00
35489;BME280;21602;55.670;37.578;2023-12-20T02:21:40;97335.13;;;4.06;100.00
35489;BME280;21602;55.670;37.578;2023-12-20T02:24:06;97322.00;;;4.11;100.00
35489;BME280;21602;55.670;37.578;2023-12-20T02:26:33;97327.88;;;4.14;100.00
35489;BME280;21602;55.670;37.578;2023-12-20T02:28:59;97331.53;;;4.13;100.00
35489;BME280;21602;55.670;37.578;2023-12-20T02:31:26;97334.41;;;4.11;100.00
35489;BME280;21602;55.670;37.578;2023-12-20T02:33:51;97330.50;;;4.14;100.00
35489;BME280;21602;55.670;37.578;2023-12-20T02:36:17;97328.09;;;4.12;100.00
35489;BME280;21602;55.670;37.578;2023-12-20T02:38:43;97321.13;;;4.06;100.00
35489;BME280;21602;55.670;37.578;2023-12-20T02:41:09;97318.25;;;4.07;100.00
35489;BME280;21602;55.670;37.578;2023-12-20T02:43:35;97334.16;;;4.13;100.00
35489;BME280;21602;55.670;37.578;2023-12-20T02:46:00;97331.31;;;4.14;100.00
35489;BME280;21602;55.670;37.578;2023-12-20T02:48:27;97319.69;;;4.15;100.00
35489;BME280;21602;55.670;37.578;2023-12-20T02:50:52;97337.31;;;4.09;100.00
35489;BME280;21602;55.670;37.578;2023-12-20T02:53:18;97328.19;;;4.00;100.00
35489;BME280;21602;55.670;37.578;2023-12-20T02:55:44;97330.31;;;4.03;100.00
35489;BME280;21602;55.670;37.578;2023-12-20T02:58:10;97327.47;;;4.05;100.00
35489;BME280;21602;55.670;37.578;2023-12-20T03:00:36;97329.78;;;4.01;100.00
35489;BME280;21602;55.670;37.578;2023-12-20T03:03:03;97318.66;;;3.99;100.00
35489;BME280;21602;55.670;37.578;2023-12-20T03:05:29;97315.44;;;3.97;100.00
35489;BME280;21602;55.670;37.578;2023-12-20T03:07:54;97309.63;;;3.95;100.00
35489;BME280;21602;55.670;37.578;2023-12-20T03:10:20;97317.56;;;3.95;100.00
35489;BME280;21602;55.670;37.578;2023-12-20T03:12:46;97321.84;;;4.01;100.00
35489;BME280;21602;55.670;37.578;2023-12-20T03:15:12;97320.59;;;4.04;100.00
35489;BME280;21602;55.670;37.578;2023-12-20T03:17:38;97327.69;;;4.03;100.00
35489;BME280;21602;55.670;37.578;2023-12-20T03:20:04;97330.50;;;3.97;100.00
35489;BME280;21602;55.670;37.578;2023-12-20T03:22:30;97324.41;;;3.96;100.00
35489;BME280;21602;55.670;37.578;2023-12-20T03:24:55;97328.66;;;3.97;100.00
35489;BME280;21602;55.670;37.578;2023-12-20T03:27:21;97322.25;;;3.93;100.00
35489;BME280;21602;55.670;37.578;2023-12-20T03:29:47;97325.06;;;3.87;100.00
35489;BME280;21602;55.670;37.578;2023-12-20T03:32:13;97325.78;;;3.82;100.00
35489;BME280;21602;55.670;37.578;2023-12-20T03:34:39;97327.13;;;3.84;100.00
35489;BME280;21602;55.670;37.578;2023-12-20T03:37:04;97324.59;;;3.90;100.00
35489;BME280;21602;55.670;37.578;2023-12-20T03:39:30;97322.03;;;3.95;100.00
35489;BME280;21602;55.670;37.578;2023-12-20T03:41:56;97322.75;;;3.90;100.00
35489;BME280;21602;55.670;37.578;2023-12-20T03:44:21;97319.31;;;3.90;100.00
35489;BME280;21602;55.670;37.578;2023-12-20T03:46:47;97320.66;;;3.92;100.00
35489;BME280;21602;55.670;37.578;2023-12-20T03:49:14;97317.75;;;3.94;100.00
35489;BME280;21602;55.670;37.578;2023-12-20T03:51:40;97322.50;;;3.92;100.00
35489;BME280;21602;55.670;37.578;2023-12-20T03:54:07;97321.31;;;3.99;100.00
35489;BME280;21602;55.670;37.578;2023-12-20T03:56:33;97341.72;;;4.04;100.00
35489;BME280;21602;55.670;37.578;2023-12-20T03:58:59;97342.19;;;4.01;100.00
35489;BME280;21602;55.670;37.578;2023-12-20T04:01:25;97332.97;;;4.03;100.00
35489;BME280;21602;55.670;37.578;2023-12-20T04:03:51;97337.78;;;4.06;100.00
35489;BME280;21602;55.670;37.578;2023-12-20T04:06:20;97329.38;;;4.09;100.00
35489;BME280;21602;55.670;37.578;2023-12-20T04:08:47;97341.63;;;4.16;100.00
35489;BME280;21602;55.670;37.578;2023-12-20T04:11:13;97335.78;;;4.14;100.00
35489;BME280;21602;55.670;37.578;2023-12-20T04:13:39;97347.63;;;4.11;100.00
35489;BME280;21602;55.670;37.578;2023-12-20T04:16:05;97353.47;;;4.13;100.00
35489;BME280;21602;55.670;37.578;2023-12-20T04:18:31;97340.28;;;4.13;100.00
35489;BME280;21602;55.670;37.578;2023-12-20T04:20:57;97340.03;;;4.15;100.00
35489;BME280;21602;55.670;37.578;2023-12-20T04:23:23;97334.50;;;4.16;100.00
35489;BME280;21602;55.670;37.578;2023-12-20T04:25:49;97337.72;;;4.18;100.00
35489;BME280;21602;55.670;37.578;2023-12-20T04:28:15;97332.44;;;4.18;100.00
35489;BME280;21602;55.670;37.578;2023-12-20T04:30:42;97344.81;;;4.18;100.00
35489;BME280;21602;55.670;37.578;2023-12-20T04:33:08;97345.31;;;4.15;100.00
35489;BME280;21602;55.670;37.578;2023-12-20T04:35:34;97344.59;;;4.19;100.00
35489;BME280;21602;55.670;37.578;2023-12-20T04:38:00;97355.16;;;4.19;100.00
35489;BME280;21602;55.670;37.578;2023-12-20T04:40:26;97352.81;;;4.23;100.00
35489;BME280;21602;55.670;37.578;2023-12-20T04:42:52;97362.34;;;4.24;100.00
35489;BME280;21602;55.670;37.578;2023-12-20T04:45:17;97364.00;;;4.30;100.00
35489;BME280;21602;55.670;37.578;2023-12-20T04:47:45;97365.69;;;4.36;100.00
35489;BME280;21602;55.670;37.578;2023-12-20T04:50:12;97368.09;;;4.38;100.00
35489;BME280;21602;55.670;37.578;2023-12-20T04:52:38;97359.13;;;4.39;100.00
35489;BME280;21602;55.670;37.578;2023-12-20T04:55:05;97346.91;;;4.32;100.00
35489;BME280;21602;55.670;37.578;2023-12-20T04:57:30;97369.56;;;4.28;100.00
35489;BME280;21602;55.670;37.578;2023-12-20T04:59:56;97359.44;;;4.25;100.00
35489;BME280;21602;55.670;37.578;2023-12-20T05:02:22;97360.19;;;4.21;100.00
35489;BME280;21602;55.670;37.578;2023-12-20T05:04:48;97355.94;;;4.20;100.00
35489;BME280;21602;55.670;37.578;2023-12-20T05:07:14;97361.22;;;4.20;100.00
35489;BME280;21602;55.670;37.578;2023-12-20T05:09:40;97362.56;;;4.22;100.00
35489;BME280;21602;55.670;37.578;2023-12-20T05:12:06;97361.47;;;4.18;100.00
35489;BME280;21602;55.670;37.578;2023-12-20T05:14:32;97363.41;;;4.23;100.00
35489;BME280;21602;55.670;37.578;2023-12-20T05:16:58;97363.75;;;4.31;100.00
35489;BME280;21602;55.670;37.578;2023-12-20T05:19:24;97364.47;;;4.27;100.00
35489;BME280;21602;55.670;37.578;2023-12-20T05:21:50;97354.66;;;4.22;100.00
35489;BME280;21602;55.670;37.578;2023-12-20T05:24:19;97354.28;;;4.14;100.00
35489;BME280;21602;55.670;37.578;2023-12-20T05:26:48;97360.34;;;4.14;100.00
35489;BME280;21602;55.670;37.578;2023-12-20T05:29:13;97374.03;;;4.11;100.00
35489;BME280;21602;55.670;37.578;2023-12-20T05:31:39;97370.50;;;4.05;100.00
35489;BME280;21602;55.670;37.578;2023-12-20T05:34:10;97367.16;;;4.10;100.00
35489;BME280;21602;55.670;37.578;2023-12-20T05:36:37;97370.03;;;4.08;100.00
35489;BME280;21602;55.670;37.578;2023-12-20T05:39:04;97364.19;;;4.06;100.00
35489;BME280;21602;55.670;37.578;2023-12-20T05:41:32;97372.75;;;4.14;100.00
35489;BME280;21602;55.670;37.578;2023-12-20T05:43:58;97383.41;;;4.19;100.00
35489;BME280;21602;55.670;37.578;2023-12-20T05:46:24;97374.69;;;4.18;100.00
35489;BME280;21602;55.670;37.578;2023-12-20T05:48:52;97373.13;;;4.22;100.00
35489;BME280;21602;55.670;37.578;2023-12-20T05:51:18;97381.56;;;4.19;100.00
35489;BME280;21602;55.670;37.578;2023-12-20T05:53:44;97385.16;;;4.13;100.00
35489;BME280;21602;55.670;37.578;2023-12-20T05:56:10;97376.19;;;4.14;100.00
35489;BME280;21602;55.670;37.578;2023-12-20T05:58:38;97380.91;;;4.12;100.00
35489;BME280;21602;55.670;37.578;2023-12-20T06:01:04;97375.88;;;4.10;100.00
35489;BME280;21602;55.670;37.578;2023-12-20T06:03:31;97384.84;;;4.09;100.00
35489;BME280;21602;55.670;37.578;2023-12-20T06:05:57;97378.50;;;4.10;100.00
35489;BME280;21602;55.670;37.578;2023-12-20T06:08:23;97392.75;;;4.09;100.00
35489;BME280;21602;55.670;37.578;2023-12-20T06:10:48;97390.13;;;4.09;100.00
35489;BME280;21602;55.670;37.578;2023-12-20T06:13:14;97394.59;;;4.09;100.00
35489;BME280;21602;55.670;37.578;2023-12-20T06:15:43;97391.00;;;4.15;100.00
35489;BME280;21602;55.670;37.578;2023-12-20T06:18:09;97400.50;;;4.16;100.00
35489;BME280;21602;55.670;37.578;2023-12-20T06:20:38;97404.28;;;4.20;100.00
35489;BME280;21602;55.670;37.578;2023-12-20T06:23:04;97399.78;;;4.21;100.00
35489;BME280;21602;55.670;37.578;2023-12-20T06:25:33;97405.41;;;4.24;100.00
35489;BME280;21602;55.670;37.578;2023-12-20T06:27:58;97403.31;;;4.26;100.00
35489;BME280;21602;55.670;37.578;2023-12-20T06:30:24;97390.34;;;4.25;100.00
35489;BME280;21602;55.670;37.578;2023-12-20T06:32:54;97403.31;;;4.26;100.00
35489;BME280;21602;55.670;37.578;2023-12-20T06:35:20;97391.16;;;4.25;100.00
35489;BME280;21602;55.670;37.578;2023-12-20T06:37:50;97393.97;;;4.19;100.00
35489;BME280;21602;55.670;37.578;2023-12-20T06:40:21;97392.44;;;4.23;100.00
35489;BME280;21602;55.670;37.578;2023-12-20T06:42:47;97408.38;;;4.28;100.00
35489;BME280;21602;55.670;37.578;2023-12-20T06:45:13;97384.09;;;4.31;99.90
35489;BME280;21602;55.670;37.578;2023-12-20T06:47:39;97399.41;;;4.29;100.00
35489;BME280;21602;55.670;37.578;2023-12-20T06:50:09;97397.31;;;4.31;99.57
35489;BME280;21602;55.670;37.578;2023-12-20T06:52:36;97399.56;;;4.39;99.55
35489;BME280;21602;55.670;37.578;2023-12-20T06:55:04;97396.91;;;4.39;99.37
35489;BME280;21602;55.670;37.578;2023-12-20T06:57:30;97399.00;;;4.37;99.32
35489;BME280;21602;55.670;37.578;2023-12-20T06:59:56;97399.94;;;4.31;99.17
35489;BME280;21602;55.670;37.578;2023-12-20T07:02:23;97398.03;;;4.26;99.34
35489;BME280;21602;55.670;37.578;2023-12-20T07:04:49;97395.47;;;4.31;99.56
35489;BME280;21602;55.670;37.578;2023-12-20T07:07:15;97395.31;;;4.38;99.56
35489;BME280;21602;55.670;37.578;2023-12-20T07:09:41;97395.88;;;4.40;99.52
35489;BME280;21602;55.670;37.578;2023-12-20T07:12:08;97398.56;;;4.45;99.55
35489;BME280;21602;55.670;37.578;2023-12-20T07:14:35;97401.53;;;4.49;99.49
35489;BME280;21602;55.670;37.578;2023-12-20T07:17:01;97397.06;;;4.49;99.46
35489;BME280;21602;55.670;37.578;2023-12-20T07:19:27;97418.13;;;4.44;98.89
35489;BME280;21602;55.670;37.578;2023-12-20T07:21:52;97406.22;;;4.42;99.13
35489;BME280;21602;55.670;37.578;2023-12-20T07:24:18;97409.41;;;4.44;99.45
35489;BME280;21602;55.670;37.578;2023-12-20T07:26:44;97420.28;;;4.47;99.44
35489;BME280;21602;55.670;37.578;2023-12-20T07:29:10;97413.72;;;4.50;99.57
35489;BME280;21602;55.670;37.578;2023-12-20T07:31:36;97412.44;;;4.52;99.61
35489;BME280;21602;55.670;37.578;2023-12-20T07:34:02;97422.94;;;4.47;99.49
35489;BME280;21602;55.670;37.578;2023-12-20T07:36:28;97420.84;;;4.49;99.52
35489;BME280;21602;55.670;37.578;2023-12-20T07:38:54;97419.25;;;4.48;99.25
35489;BME280;21602;55.670;37.578;2023-12-20T07:41:20;97417.00;;;4.40;99.44
35489;BME280;21602;55.670;37.578;2023-12-20T07:43:47;97422.53;;;4.39;99.46
35489;BME280;21602;55.670;37.578;2023-12-20T07:46:13;97420.69;;;4.39;99.52
35489;BME280;21602;55.670;37.578;2023-12-20T07:48:40;97429.75;;;4.43;99.65
35489;BME280;21602;55.670;37.578;2023-12-20T07:51:07;97432.84;;;4.40;99.35
35489;BME280;21602;55.670;37.578;2023-12-20T07:53:34;97435.28;;;4.42;99.41
35489;BME280;21602;55.670;37.578;2023-12-20T07:56:00;97428.16;;;4.42;99.28
35489;BME280;21602;55.670;37.578;2023-12-20T07:58:26;97442.44;;;4.46;98.96
35489;BME280;21602;55.670;37.578;2023-12-20T08:00:52;97443.03;;;4.48;98.92
35489;BME280;21602;55.670;37.578;2023-12-20T08:03:18;97439.34;;;4.49;98.71
35489;BME280;21602;55.670;37.578;2023-12-20T08:05:44;97435.09;;;4.48;98.69
35489;BME280;21602;55.670;37.578;2023-12-20T08:08:10;97432.78;;;4.52;98.44
35489;BME280;21602;55.670;37.578;2023-12-20T08:10:36;97442.06;;;4.54;98.33
35489;BME280;21602;55.670;37.578;2023-12-20T08:13:02;97446.28;;;4.55;98.64
35489;BME280;21602;55.670;37.578;2023-12-20T08:15:31;97447.13;;;4.56;98.42
35489;BME280;21602;55.670;37.578;2023-12-20T08:17:57;97439.25;;;4.61;98.67
35489;BME280;21602;55.670;37.578;2023-12-20T08:20:23;97447.50;;;4.65;98.33
35489;BME280;21602;55.670;37.578;2023-12-20T08:22:49;97435.31;;;4.63;98.21
35489;BME280;21602;55.670;37.578;2023-12-20T08:25:15;97431.16;;;4.68;98.10
35489;BME280;21602;55.670;37.578;2023-12-20T08:27:44;97433.63;;;4.74;98.13
35489;BME280;21602;55.670;37.578;2023-12-20T08:30:11;97435.97;;;4.71;97.67
35489;BME280;21602;55.670;37.578;2023-12-20T08:32:38;97440.28;;;4.77;97.98
35489;BME280;21602;55.670;37.578;2023-12-20T08:35:07;97440.09;;;4.83;98.12
35489;BME280;21602;55.670;37.578;2023-12-20T08:37:34;97434.81;;;4.83;98.12
35489;BME280;21602;55.670;37.578;2023-12-20T08:40:01;97429.28;;;4.85;98.14
35489;BME280;21602;55.670;37.578;2023-12-20T08:43:00;97423.03;;;4.91;97.99
35489;BME280;21602;55.670;37.578;2023-12-20T08:45:34;97423.28;;;4.90;97.72
35489;BME280;21602;55.670;37.578;2023-12-20T08:48:00;97424.09;;;4.90;98.10
35489;BME280;21602;55.670;37.578;2023-12-20T08:50:33;97430.16;;;4.91;98.26
35489;BME280;21602;55.670;37.578;2023-12-20T08:53:01;97429.91;;;4.92;98.40
35489;BME280;21602;55.670;37.578;2023-12-20T08:55:27;97421.44;;;4.90;98.18
35489;BME280;21602;55.670;37.578;2023-12-20T08:57:54;97414.16;;;4.80;98.27
35489;BME280;21602;55.670;37.578;2023-12-20T09:00:20;97418.09;;;4.78;98.67
35489;BME280;21602;55.670;37.578;2023-12-20T09:02:58;97419.38;;;4.75;99.01
35489;BME280;21602;55.670;37.578;2023-12-20T09:05:25;97422.38;;;4.84;98.82
35489;BME280;21602;55.670;37.578;2023-12-20T09:07:55;97420.84;;;4.88;98.56
35489;BME280;21602;55.670;37.578;2023-12-20T09:10:21;97424.81;;;4.85;99.04
35489;BME280;21602;55.670;37.578;2023-12-20T09:12:59;97423.44;;;4.83;98.87
35489;BME280;21602;55.670;37.578;2023-12-20T09:15:28;97415.28;;;4.84;99.07
35489;BME280;21602;55.670;37.578;2023-12-20T09:17:56;97410.22;;;4.83;99.11
35489;BME280;21602;55.670;37.578;2023-12-20T09:20:25;97421.78;;;4.77;99.47
35489;BME280;21602;55.670;37.578;2023-12-20T09:22:57;97419.06;;;4.72;99.53
35489;BME280;21602;55.670;37.578;2023-12-20T09:25:26;97413.19;;;4.70;99.56
35489;BME280;21602;55.670;37.578;2023-12-20T09:27:54;97418.19;;;4.66;100.00
35489;BME280;21602;55.670;37.578;2023-12-20T09:30:23;97417.94;;;4.68;100.00
35489;BME280;21602;55.670;37.578;2023-12-20T09:32:49;97419.59;;;4.74;100.00
35489;BME280;21602;55.670;37.578;2023-12-20T09:35:19;97410.66;;;4.75;100.00
35489;BME280;21602;55.670;37.578;2023-12-20T09:37:45;97412.47;;;4.74;99.88
35489;BME280;21602;55.670;37.578;2023-12-20T09:40:13;97403.47;;;4.70;100.00
35489;BME280;21602;55.670;37.578;2023-12-20T09:43:05;97394.47;;;4.71;100.00
35489;BME280;21602;55.670;37.578;2023-12-20T09:45:39;97389.13;;;4.66;100.00
35489;BME280;21602;55.670;37.578;2023-12-20T09:48:10;97395.13;;;4.61;100.00
35489;BME280;21602;55.670;37.578;2023-12-20T09:50:36;97387.75;;;4.63;100.00
35489;BME280;21602;55.670;37.578;2023-12-20T09:53:02;97387.75;;;4.63;100.00
35489;BME280;21602;55.670;37.578;2023-12-20T09:55:31;97401.03;;;4.69;100.00
35489;BME280;21602;55.670;37.578;2023-12-20T09:57:59;97394.41;;;4.66;100.00
35489;BME280;21602;55.670;37.578;2023-12-20T10:00:26;97402.72;;;4.75;100.00
35489;BME280;21602;55.670;37.578;2023-12-20T10:02:58;97406.97;;;4.76;100.00
35489;BME280;21602;55.670;37.578;2023-12-20T10:05:31;97409.53;;;4.71;100.00
35489;BME280;21602;55.670;37.578;2023-12-20T10:07:58;97397.34;;;4.70;100.00
35489;BME280;21602;55.670;37.578;2023-12-20T10:10:26;97408.00;;;4.75;100.00
35489;BME280;21602;55.670;37.578;2023-12-20T10:13:11;97409.81;;;4.74;100.00
35489;BME280;21602;55.670;37.578;2023-12-20T10:15:37;97400.25;;;4.68;100.00
35489;BME280;21602;55.670;37.578;2023-12-20T10:18:04;97409.94;;;4.62;100.00
35489;BME280;21602;55.670;37.578;2023-12-20T10:20:31;97417.88;;;4.62;100.00
35489;BME280;21602;55.670;37.578;2023-12-20T10:22:58;97410.47;;;4.65;100.00
35489;BME280;21602;55.670;37.578;2023-12-20T10:25:24;97412.25;;;4.59;100.00
35489;BME280;21602;55.670;37.578;2023-12-20T10:28:14;97426.28;;;4.59;100.00
35489;BME280;21602;55.670;37.578;2023-12-20T10:30:41;97431.34;;;4.61;100.00
35489;BME280;21602;55.670;37.578;2023-12-20T10:33:07;97431.63;;;4.65;100.00
35489;BME280;21602;55.670;37.578;2023-12-20T10:35:34;97424.75;;;4.63;100.00
35489;BME280;21602;55.670;37.578;2023-12-20T10:38:04;97417.06;;;4.62;100.00
35489;BME280;21602;55.670;37.578;2023-12-20T10:40:36;97416.28;;;4.61;100.00
35489;BME280;21602;55.670;37.578;2023-12-20T10:43:03;97424.69;;;4.58;100.00
35489;BME280;21602;55.670;37.578;2023-12-20T10:45:29;97418.59;;;4.58;100.00
35489;BME280;21602;55.670;37.578;2023-12-20T10:47:56;97435.31;;;4.63;100.00
35489;BME280;21602;55.670;37.578;2023-12-20T10:50:26;97426.34;;;4.65;100.00
35489;BME280;21602;55.670;37.578;2023-12-20T10:52:52;97423.22;;;4.68;100.00
35489;BME280;21602;55.670;37.578;2023-12-20T10:55:24;97426.91;;;4.67;100.00
35489;BME280;21602;55.670;37.578;2023-12-20T10:58:09;97431.16;;;4.68;100.00
35489;BME280;21602;55.670;37.578;2023-12-20T11:00:39;97435.31;;;4.63;100.00
35489;BME280;21602;55.670;37.578;2023-12-20T11:03:05;97436.38;;;4.62;100.00
35489;BME280;21602;55.670;37.578;2023-12-20T11:12:05;97416.75;;;4.58;100.00
35489;BME280;21602;55.670;37.578;2023-12-20T11:14:50;97430.03;;;4.63;100.00
35489;BME280;21602;55.670;37.578;2023-12-20T11:17:16;97427.66;;;4.62;100.00
35489;BME280;21602;55.670;37.578;2023-12-20T11:22:26;97440.69;;;4.69;100.00
35489;BME280;21602;55.670;37.578;2023-12-20T11:24:53;97441.81;;;4.73;100.00
35489;BME280;21602;55.670;37.578;2023-12-20T11:27:19;97442.13;;;4.76;100.00
35489;BME280;21602;55.670;37.578;2023-12-20T11:29:54;97440.28;;;4.77;100.00
35489;BME280;21602;55.670;37.578;2023-12-20T11:34:55;97429.63;;;4.72;100.00
35489;BME280;21602;55.670;37.578;2023-12-20T11:37:22;97430.09;;;4.69;100.00
35489;BME280;21602;55.670;37.578;2023-12-20T11:40:04;97433.72;;;4.62;100.00
35489;BME280;21602;55.670;37.578;2023-12-20T11:42:38;97437.41;;;4.61;100.00
35489;BME280;21602;55.670;37.578;2023-12-20T11:45:05;97438.94;;;4.57;100.00
35489;BME280;21602;55.670;37.578;2023-12-20T11:47:31;97430.22;;;4.57;100.00
35489;BME280;21602;55.670;37.578;2023-12-20T11:49:57;97432.34;;;4.60;100.00
35489;BME280;21602;55.670;37.578;2023-12-20T11:52:26;97428.84;;;4.54;100.00
35489;BME280;21602;55.670;37.578;2023-12-20T11:54:51;97423.00;;;4.52;100.00
35489;BME280;21602;55.670;37.578;2023-12-20T11:57:17;97428.22;;;4.47;100.00
35489;BME280;21602;55.670;37.578;2023-12-20T11:59:43;97420.22;;;4.42;100.00
35489;BME280;21602;55.670;37.578;2023-12-20T12:02:11;97433.72;;;4.46;100.00
35489;BME280;21602;55.670;37.578;2023-12-20T12:04:41;97434.53;;;4.46;100.00
35489;BME280;21602;55.670;37.578;2023-12-20T12:07:07;97431.88;;;4.46;100.00
35489;BME280;21602;55.670;37.578;2023-12-20T12:09:34;97437.16;;;4.46;100.00
35489;BME280;21602;55.670;37.578;2023-12-20T12:12:01;97441.44;;;4.47;100.00
35489;BME280;21602;55.670;37.578;2023-12-20T12:14:27;97431.00;;;4.41;100.00
35489;BME280;21602;55.670;37.578;2023-12-20T12:16:53;97434.69;;;4.40;100.00
35489;BME280;21602;55.670;37.578;2023-12-20T12:19:21;97434.94;;;4.38;100.00
35489;BME280;21602;55.670;37.578;2023-12-20T12:21:49;97438.38;;;4.39;100.00
35489;BME280;21602;55.670;37.578;2023-12-20T12:24:20;97430.78;;;4.42;100.00
35489;BME280;21602;55.670;37.578;2023-12-20T12:26:57;97431.66;;;4.48;100.00
35489;BME280;21602;55.670;37.578;2023-12-20T12:29:24;97433.91;;;4.39;100.00
35489;BME280;21602;55.670;37.578;2023-12-20T12:31:56;97442.06;;;4.38;100.00
35489;BME280;21602;55.670;37.578;2023-12-20T12:34:23;97441.41;;;4.30;100.00
35489;BME280;21602;55.670;37.578;2023-12-20T12:36:53;97446.22;;;4.33;100.00
35489;BME280;21602;55.670;37.578;2023-12-20T12:39:23;97446.78;;;4.35;100.00
35489;BME280;21602;55.670;37.578;2023-12-20T12:41:53;97444.84;;;4.31;100.00
35489;BME280;21602;55.670;37.578;2023-12-20T12:44:19;97455.91;;;4.28;100.00
35489;BME280;21602;55.670;37.578;2023-12-20T12:46:46;97450.38;;;4.29;100.00
35489;BME280;21602;55.670;37.578;2023-12-20T12:49:16;97457.75;;;4.27;100.00
35489;BME280;21602;55.670;37.578;2023-12-20T12:51:44;97457.25;;;4.30;100.00
35489;BME280;21602;55.670;37.578;2023-12-20T12:54:12;97457.75;;;4.27;100.00
35489;BME280;21602;55.670;37.578;2023-12-20T12:56:41;97472.69;;;4.22;100.00
35489;BME280;21602;55.670;37.578;2023-12-20T12:59:08;97477.25;;;4.26;100.00
35489;BME280;21602;55.670;37.578;2023-12-20T13:01:34;97472.47;;;4.23;100.00
35489;BME280;21602;55.670;37.578;2023-12-20T13:04:00;97476.72;;;4.24;100.00